createdAt,value
2023-05-10T00:00:20.059Z,36.75
2023-05-10T00:01:20.081Z,36.66
2023-05-10T00:02:20.118Z,36.76
2023-05-10T00:03:20.205Z,36.72
2023-05-10T00:04:20.186Z,36.74
2023-05-10T00:05:20.171Z,36.73
2023-05-10T00:06:20.148Z,36.72
2023-05-10T00:07:20.149Z,36.69
2023-05-10T00:08:20.192Z,36.70
2023-05-10T00:09:20.214Z,36.78
2023-05-10T00:10:20.234Z,36.76
2023-05-10T00:11:22.270Z,36.78
2023-05-10T00:12:20.218Z,36.80
2023-05-10T00:13:20.242Z,36.80
2023-05-10T00:14:20.175Z,36.81
2023-05-10T00:15:20.186Z,36.89
2023-05-10T00:16:20.283Z,36.89
2023-05-10T00:17:20.179Z,36.92
2023-05-10T00:18:20.206Z,36.85
2023-05-10T00:19:20.148Z,36.85
2023-05-10T00:20:20.138Z,36.85
2023-05-10T00:21:20.136Z,36.82
2023-05-10T00:22:20.151Z,36.81
2023-05-10T00:23:20.126Z,36.87
2023-05-10T00:24:20.140Z,36.85
2023-05-10T00:25:20.132Z,36.90
2023-05-10T00:26:20.117Z,36.93
2023-05-10T00:27:20.130Z,36.91
2023-05-10T00:28:20.132Z,36.91
2023-05-10T00:29:20.096Z,36.99
2023-05-10T00:30:20.081Z,36.90
2023-05-10T00:31:20.105Z,36.93
2023-05-10T00:32:20.170Z,36.91
2023-05-10T00:33:20.089Z,36.96
2023-05-10T00:34:20.096Z,36.90
2023-05-10T00:35:20.072Z,36.94
2023-05-10T00:36:20.036Z,36.97
2023-05-10T00:37:20.040Z,36.93
2023-05-10T00:38:20.037Z,36.99
2023-05-10T00:39:20.021Z,36.95
2023-05-10T00:40:20.039Z,36.94
2023-05-10T00:41:20.058Z,36.95
2023-05-10T00:42:20.006Z,36.93
2023-05-10T00:43:19.996Z,36.97
2023-05-10T00:44:19.987Z,36.97
2023-05-10T00:45:19.979Z,36.95
2023-05-10T00:46:20.067Z,37.00
2023-05-10T00:47:19.991Z,36.97
2023-05-10T00:48:19.979Z,36.98
2023-05-10T00:49:19.959Z,36.95
2023-05-10T00:50:19.974Z,36.95
2023-05-10T00:51:19.965Z,36.95
2023-05-10T00:52:19.931Z,36.98
2023-05-10T00:53:19.954Z,36.99
2023-05-10T00:54:19.945Z,37.00
2023-05-10T00:55:19.923Z,37.00
2023-05-10T00:56:19.922Z,36.93
2023-05-10T00:57:19.917Z,36.91
2023-05-10T00:58:19.895Z,36.98
2023-05-10T00:59:19.923Z,36.92
2023-05-10T01:00:19.875Z,36.95
2023-05-10T01:01:19.921Z,36.95
2023-05-10T01:02:19.945Z,36.91
2023-05-10T01:03:20.100Z,36.93
2023-05-10T01:04:19.847Z,36.99
2023-05-10T01:05:19.887Z,36.96
2023-05-10T01:06:19.857Z,36.93
2023-05-10T01:07:19.835Z,36.91
2023-05-10T01:08:19.851Z,36.89
2023-05-10T01:09:19.836Z,36.96
2023-05-10T01:10:19.830Z,36.93
2023-05-10T01:11:19.841Z,36.95
2023-05-10T01:12:19.908Z,36.85
2023-05-10T01:13:19.885Z,36.93
2023-05-10T01:14:19.781Z,36.87
2023-05-10T01:15:19.816Z,36.85
2023-05-10T01:16:19.804Z,36.87
2023-05-10T01:17:19.807Z,37.00
2023-05-10T01:18:19.797Z,36.97
2023-05-10T01:19:19.768Z,36.97
2023-05-10T01:20:19.886Z,36.96
2023-05-10T01:21:19.824Z,36.97
2023-05-10T01:22:19.755Z,37.00
2023-05-10T01:23:19.760Z,37.02
2023-05-10T01:24:19.772Z,36.98
2023-05-10T01:25:19.730Z,37.09
2023-05-10T01:26:19.705Z,37.00
2023-05-10T01:27:19.718Z,37.01
2023-05-10T01:28:19.696Z,37.02
2023-05-10T01:29:19.731Z,37.03
2023-05-10T01:31:19.758Z,36.97
2023-05-10T01:32:19.663Z,36.98
2023-05-10T01:33:19.684Z,36.90
2023-05-10T01:34:19.679Z,36.85
2023-05-10T01:35:19.663Z,36.93
2023-05-10T01:36:19.651Z,36.87
2023-05-10T01:37:19.631Z,36.93
2023-05-10T01:38:19.623Z,36.88
2023-05-10T01:39:19.643Z,36.88
2023-05-10T01:40:19.628Z,36.94
2023-05-10T01:41:19.700Z,36.94
2023-05-10T01:42:19.626Z,36.88
2023-05-10T01:43:19.612Z,36.90
2023-05-10T01:44:19.585Z,36.98
2023-05-10T01:45:19.597Z,36.90
2023-05-10T01:46:19.658Z,36.92
2023-05-10T01:47:19.578Z,36.94
2023-05-10T01:48:19.588Z,36.97
2023-05-10T01:49:19.569Z,36.96
2023-05-10T01:50:19.669Z,36.91
2023-05-10T01:51:19.560Z,36.89
2023-05-10T01:52:19.527Z,36.92
2023-05-10T01:53:19.519Z,36.92
2023-05-10T01:54:19.549Z,36.87
2023-05-10T01:55:19.576Z,36.90
2023-05-10T01:56:19.526Z,36.86
2023-05-10T01:57:19.497Z,36.85
2023-05-10T01:58:19.521Z,36.89
2023-05-10T01:59:19.536Z,36.85
2023-05-10T02:00:19.490Z,36.91
2023-05-10T02:01:19.547Z,36.81
2023-05-10T02:02:19.483Z,36.85
2023-05-10T02:03:19.516Z,36.90
2023-05-10T02:04:19.492Z,36.84
2023-05-10T02:05:19.445Z,36.82
2023-05-10T02:06:19.449Z,36.83
2023-05-10T02:07:19.459Z,36.86
2023-05-10T02:08:19.431Z,36.82
2023-05-10T02:09:19.419Z,36.82
2023-05-10T02:10:19.524Z,36.87
2023-05-10T02:11:19.407Z,36.86
2023-05-10T02:12:19.400Z,36.90
2023-05-10T02:13:19.456Z,36.90
2023-05-10T02:14:19.393Z,36.90
2023-05-10T02:15:19.410Z,36.89
2023-05-10T02:16:19.515Z,36.85
2023-05-10T02:17:19.368Z,36.75
2023-05-10T02:18:19.400Z,36.83
2023-05-10T02:19:19.353Z,36.74
2023-05-10T02:20:19.556Z,36.82
2023-05-10T02:21:19.336Z,36.73
2023-05-10T02:22:19.401Z,36.81
2023-05-10T02:23:19.318Z,36.75
2023-05-10T02:24:19.335Z,36.73
2023-05-10T02:25:19.322Z,36.73
2023-05-10T02:26:19.328Z,36.74
2023-05-10T02:27:19.307Z,36.74
2023-05-10T02:28:19.312Z,36.75
2023-05-10T02:29:19.306Z,36.75
2023-05-10T02:30:19.280Z,36.74
2023-05-10T02:31:19.358Z,36.75
2023-05-10T02:32:19.281Z,36.78
2023-05-10T02:33:19.256Z,36.72
2023-05-10T02:34:19.345Z,36.78
2023-05-10T02:35:19.248Z,36.75
2023-05-10T02:36:19.280Z,36.79
2023-05-10T02:37:19.269Z,36.76
2023-05-10T02:38:19.232Z,36.76
2023-05-10T02:39:19.246Z,36.71
2023-05-10T02:40:19.385Z,36.70
2023-05-10T02:41:19.221Z,36.72
2023-05-10T02:42:19.219Z,36.69
2023-05-10T02:43:19.212Z,36.60
2023-05-10T02:44:19.199Z,36.58
2023-05-10T02:45:19.184Z,36.54
2023-05-10T02:46:19.218Z,36.58
2023-05-10T02:47:19.165Z,36.55
2023-05-10T02:48:19.174Z,36.57
2023-05-10T02:49:19.182Z,36.52
2023-05-10T02:50:19.226Z,36.60
2023-05-10T02:51:19.215Z,36.58
2023-05-10T02:52:19.161Z,36.60
2023-05-10T02:53:19.141Z,36.65
2023-05-10T02:54:19.163Z,36.64
2023-05-10T02:55:19.156Z,36.68
2023-05-10T02:56:19.119Z,36.67
2023-05-10T02:57:19.156Z,36.68
2023-05-10T02:58:19.139Z,36.67
2023-05-10T02:59:19.124Z,36.67
2023-05-10T03:00:19.138Z,36.60
2023-05-10T03:01:19.149Z,36.67
2023-05-10T03:02:19.139Z,36.71
2023-05-10T03:03:19.140Z,36.67
2023-05-10T03:04:19.214Z,36.72
2023-05-10T03:05:19.132Z,36.72
2023-05-10T03:06:19.142Z,36.70
2023-05-10T03:07:19.152Z,36.66
2023-05-10T03:08:19.184Z,36.74
2023-05-10T03:09:19.166Z,36.62
2023-05-10T03:10:19.364Z,36.64
2023-05-10T03:11:19.149Z,36.63
2023-05-10T03:12:19.159Z,36.60
2023-05-10T03:13:19.236Z,36.56
2023-05-10T03:14:19.191Z,36.56
2023-05-10T03:15:19.195Z,36.56
2023-05-10T03:16:19.230Z,36.56
2023-05-10T03:17:19.184Z,36.54
2023-05-10T03:18:19.202Z,36.47
2023-05-10T03:19:19.222Z,36.54
2023-05-10T03:20:19.218Z,36.47
2023-05-10T03:21:19.219Z,36.49
2023-05-10T03:22:19.224Z,36.54
2023-05-10T03:23:19.235Z,36.53
2023-05-10T03:24:19.215Z,36.47
2023-05-10T03:25:19.216Z,36.51
2023-05-10T03:26:19.276Z,36.48
2023-05-10T03:27:19.221Z,36.49
2023-05-10T03:28:19.282Z,36.47
2023-05-10T03:29:19.281Z,36.51
2023-05-10T03:30:19.418Z,36.41
2023-05-10T03:31:19.266Z,36.45
2023-05-10T03:32:19.222Z,36.50
2023-05-10T03:33:19.226Z,36.50
2023-05-10T03:34:19.232Z,36.49
2023-05-10T03:35:19.227Z,36.56
2023-05-10T03:36:19.274Z,36.53
2023-05-10T03:37:19.279Z,36.52
2023-05-10T03:38:19.317Z,36.50
2023-05-10T03:39:19.346Z,36.54
2023-05-10T03:40:19.539Z,36.49
2023-05-10T03:41:19.362Z,36.54
2023-05-10T03:42:19.419Z,36.50
2023-05-10T03:43:19.432Z,36.46
2023-05-10T03:44:19.428Z,36.45
2023-05-10T03:45:19.490Z,36.47
2023-05-10T03:46:19.443Z,36.45
2023-05-10T03:47:19.450Z,36.44
2023-05-10T03:48:19.437Z,36.40
2023-05-10T03:49:19.452Z,36.41
2023-05-10T03:50:19.603Z,36.41
2023-05-10T03:51:19.484Z,36.33
2023-05-10T03:52:19.529Z,36.34
2023-05-10T03:53:19.533Z,36.32
2023-05-10T03:54:19.543Z,36.27
2023-05-10T03:55:19.540Z,36.33
2023-05-10T03:56:19.539Z,36.29
2023-05-10T03:57:19.523Z,36.33
2023-05-10T03:58:19.539Z,36.30
2023-05-10T03:59:19.546Z,36.32
2023-05-10T04:00:19.714Z,36.30
2023-05-10T04:01:19.547Z,36.27
2023-05-10T04:02:19.589Z,36.33
2023-05-10T04:03:19.704Z,36.31
2023-05-10T04:04:19.959Z,36.21
2023-05-10T04:05:19.660Z,36.25
2023-05-10T04:06:19.711Z,36.27
2023-05-10T04:07:19.658Z,36.31
2023-05-10T04:08:19.668Z,36.23
2023-05-10T04:09:19.723Z,36.26
2023-05-10T04:10:19.766Z,36.19
2023-05-10T04:11:19.693Z,36.27
2023-05-10T04:12:19.692Z,36.21
2023-05-10T04:13:19.742Z,36.13
2023-05-10T04:14:19.701Z,36.16
2023-05-10T04:15:19.717Z,36.16
2023-05-10T04:16:19.782Z,36.14
2023-05-10T04:17:19.751Z,36.10
2023-05-10T04:18:19.704Z,36.09
2023-05-10T04:19:19.822Z,36.10
2023-05-10T04:20:19.767Z,36.14
2023-05-10T04:21:19.694Z,36.09
2023-05-10T04:22:19.722Z,36.15
2023-05-10T04:23:19.699Z,36.13
2023-05-10T04:24:19.705Z,36.10
2023-05-10T04:25:19.702Z,36.11
2023-05-10T04:26:19.693Z,36.06
2023-05-10T04:27:19.705Z,36.05
2023-05-10T04:28:19.744Z,36.09
2023-05-10T04:29:19.695Z,36.06
2023-05-10T04:30:19.692Z,36.04
2023-05-10T04:31:19.828Z,36.04
2023-05-10T04:32:19.700Z,35.97
2023-05-10T04:33:19.696Z,35.97
2023-05-10T04:34:20.128Z,35.98
2023-05-10T04:35:19.721Z,35.94
2023-05-10T04:36:19.717Z,35.94
2023-05-10T04:37:19.714Z,35.93
2023-05-10T04:38:19.722Z,36.00
2023-05-10T04:39:19.728Z,35.94
2023-05-10T04:40:19.745Z,35.94
2023-05-10T04:41:19.741Z,35.98
2023-05-10T04:42:19.749Z,36.02
2023-05-10T04:43:19.764Z,36.00
2023-05-10T04:44:19.783Z,35.97
2023-05-10T04:45:19.769Z,36.01
2023-05-10T04:46:19.817Z,36.00
2023-05-10T04:47:19.777Z,36.05
2023-05-10T04:48:19.751Z,36.06
2023-05-10T04:49:19.754Z,36.09
2023-05-10T04:50:19.787Z,36.06
2023-05-10T04:51:19.797Z,36.10
2023-05-10T04:52:19.794Z,36.18
2023-05-10T04:53:19.799Z,36.10
2023-05-10T04:54:19.795Z,36.17
2023-05-10T04:55:19.782Z,36.09
2023-05-10T04:56:19.801Z,36.19
2023-05-10T04:57:19.824Z,36.07
2023-05-10T04:58:19.818Z,36.10
2023-05-10T04:59:19.836Z,36.10
2023-05-10T05:00:19.830Z,36.11
2023-05-10T05:01:19.854Z,36.07
2023-05-10T05:02:19.852Z,36.09
2023-05-10T05:03:19.978Z,36.04
2023-05-10T05:04:19.836Z,36.10
2023-05-10T05:05:19.858Z,36.10
2023-05-10T05:06:19.841Z,36.15
2023-05-10T05:07:19.865Z,36.15
2023-05-10T05:08:19.844Z,36.15
2023-05-10T05:09:19.875Z,36.14
2023-05-10T05:10:20.122Z,36.18
2023-05-10T05:11:19.866Z,36.14
2023-05-10T05:12:19.870Z,36.19
2023-05-10T05:13:19.927Z,36.16
2023-05-10T05:14:19.870Z,36.16
2023-05-10T05:15:19.880Z,36.15
2023-05-10T05:16:19.886Z,36.19
2023-05-10T05:17:19.870Z,36.13
2023-05-10T05:18:19.898Z,36.15
2023-05-10T05:19:19.905Z,36.18
2023-05-10T05:20:20.007Z,36.18
2023-05-10T05:21:19.960Z,36.13
2023-05-10T05:22:19.909Z,36.23
2023-05-10T05:23:19.924Z,36.21
2023-05-10T05:24:19.933Z,36.27
2023-05-10T05:25:19.934Z,36.22
2023-05-10T05:26:19.955Z,36.30
2023-05-10T05:27:19.956Z,36.25
2023-05-10T05:28:19.974Z,36.27
2023-05-10T05:29:19.977Z,36.34
2023-05-10T05:30:20.011Z,36.51
2023-05-10T05:31:20.081Z,36.47
2023-05-10T05:32:20.020Z,37.17
2023-05-10T05:33:20.029Z,37.63
2023-05-10T05:34:20.155Z,37.60
2023-05-10T05:35:20.055Z,37.58
2023-05-10T05:36:20.042Z,37.27
2023-05-10T05:37:20.044Z,37.48
2023-05-10T05:38:20.073Z,37.63
2023-05-10T05:39:20.044Z,38.30
2023-05-10T05:40:20.036Z,37.89
2023-05-10T05:41:20.074Z,38.01
2023-05-10T05:42:20.083Z,37.93
2023-05-10T05:43:20.165Z,37.77
2023-05-10T05:44:20.236Z,37.63
2023-05-10T05:45:20.426Z,37.58
2023-05-10T05:46:20.353Z,37.63
2023-05-10T05:47:20.400Z,37.70
2023-05-10T05:48:20.447Z,37.56
2023-05-10T05:49:20.686Z,37.67
2023-05-10T05:50:20.529Z,37.31
2023-05-10T05:51:20.584Z,37.78
2023-05-10T05:52:20.619Z,37.81
2023-05-10T05:53:20.681Z,37.75
2023-05-10T05:54:21.141Z,37.71
2023-05-10T05:55:20.758Z,37.78
2023-05-10T05:56:20.789Z,37.69
2023-05-10T05:57:20.814Z,37.70
2023-05-10T05:58:20.870Z,37.88
2023-05-10T05:59:20.893Z,36.85
2023-05-10T06:00:20.936Z,37.15
2023-05-10T06:01:21.014Z,37.28
2023-05-10T06:02:21.096Z,37.36
2023-05-10T06:03:21.220Z,37.46
2023-05-10T06:04:21.137Z,37.72
2023-05-10T06:05:21.080Z,37.92
2023-05-10T06:06:21.104Z,38.13
2023-05-10T06:07:21.117Z,38.26
2023-05-10T06:08:21.149Z,38.41
2023-05-10T06:09:21.162Z,38.60
2023-05-10T06:10:21.192Z,38.71
2023-05-10T06:11:21.221Z,38.79
2023-05-10T06:12:21.260Z,38.73
2023-05-10T06:13:21.280Z,39.05
2023-05-10T06:14:21.277Z,38.67
2023-05-10T06:15:21.678Z,38.66
2023-05-10T06:16:21.327Z,38.47
2023-05-10T06:17:21.291Z,38.50
2023-05-10T06:18:21.300Z,38.56
2023-05-10T06:19:21.670Z,38.41
2023-05-10T06:20:21.669Z,38.47
2023-05-10T06:21:21.492Z,38.37
2023-05-10T06:22:21.551Z,38.81
2023-05-10T06:23:21.624Z,38.70
2023-05-10T06:24:21.660Z,38.87
2023-05-10T06:25:21.709Z,38.75
2023-05-10T06:26:21.742Z,38.65
2023-05-10T06:27:21.785Z,38.72
2023-05-10T06:28:21.806Z,38.51
2023-05-10T06:29:21.848Z,38.61
2023-05-10T06:30:22.199Z,38.57
2023-05-10T06:31:21.934Z,38.74
2023-05-10T06:32:21.957Z,38.46
2023-05-10T06:33:22.020Z,38.77
2023-05-10T06:34:22.183Z,38.76
2023-05-10T06:35:22.042Z,38.86
2023-05-10T06:36:22.072Z,38.62
2023-05-10T06:37:22.063Z,38.37
2023-05-10T06:38:22.095Z,38.51
2023-05-10T06:39:22.131Z,38.69
2023-05-10T06:40:22.132Z,38.67
2023-05-10T06:41:24.604Z,38.58
2023-05-10T06:42:22.367Z,38.46
2023-05-10T06:43:22.412Z,38.49
2023-05-10T06:44:22.415Z,38.23
2023-05-10T06:45:22.424Z,38.18
2023-05-10T06:46:22.431Z,38.08
2023-05-10T06:47:22.412Z,37.82
2023-05-10T06:48:22.567Z,37.87
2023-05-10T06:49:22.415Z,37.84
2023-05-10T06:50:22.428Z,37.86
2023-05-10T06:51:22.424Z,37.83
2023-05-10T06:52:22.419Z,37.76
2023-05-10T06:53:22.404Z,37.86
2023-05-10T06:54:22.400Z,37.87
2023-05-10T06:55:22.410Z,37.72
2023-05-10T06:56:22.446Z,37.55
2023-05-10T06:57:31.224Z,37.52
2023-05-10T06:58:23.411Z,37.79
2023-05-10T06:59:23.236Z,37.75
2023-05-10T07:00:22.393Z,37.19
2023-05-10T07:01:22.443Z,37.64
2023-05-10T07:02:22.418Z,37.79
2023-05-10T07:03:22.466Z,37.90
2023-05-10T07:04:22.406Z,37.84
2023-05-10T07:05:22.429Z,37.75
2023-05-10T07:06:32.774Z,37.73
2023-05-10T07:07:23.327Z,37.72
2023-05-10T07:08:22.341Z,37.50
2023-05-10T07:09:22.329Z,37.70
2023-05-10T07:10:22.334Z,37.75
2023-05-10T07:11:22.362Z,37.73
2023-05-10T07:12:22.338Z,37.92
2023-05-10T07:13:22.349Z,37.61
2023-05-10T07:14:22.294Z,38.03
2023-05-10T07:15:22.289Z,38.01
2023-05-10T07:16:22.338Z,38.17
2023-05-10T07:17:22.331Z,38.25
2023-05-10T07:18:22.376Z,38.16
2023-05-10T07:19:22.357Z,38.22
2023-05-10T07:20:22.421Z,38.16
2023-05-10T07:21:22.500Z,38.19
2023-05-10T07:22:22.534Z,38.18
2023-05-10T07:23:22.594Z,38.25
2023-05-10T07:24:22.662Z,38.11
2023-05-10T07:25:22.727Z,38.27
2023-05-10T07:26:22.793Z,38.16
2023-05-10T07:27:22.834Z,38.21
2023-05-10T07:28:22.871Z,38.16
2023-05-10T07:29:22.936Z,38.08
2023-05-10T07:30:22.969Z,38.32
2023-05-10T07:31:22.917Z,38.03
2023-05-10T07:32:23.274Z,38.04
2023-05-10T07:33:23.004Z,38.05
2023-05-10T07:34:22.972Z,38.01
2023-05-10T07:35:23.013Z,37.95
2023-05-10T07:36:23.046Z,37.92
2023-05-10T07:37:23.065Z,37.50
2023-05-10T07:38:23.105Z,38.07
2023-05-10T07:39:27.476Z,37.88
2023-05-10T07:40:24.150Z,37.19
2023-05-10T07:41:23.145Z,37.64
2023-05-10T07:42:23.145Z,37.73
2023-05-10T07:43:23.229Z,37.39
2023-05-10T07:44:23.124Z,37.81
2023-05-10T07:45:23.137Z,37.82
2023-05-10T07:46:23.214Z,37.97
2023-05-10T07:47:23.122Z,37.74
2023-05-10T07:48:23.100Z,37.88
2023-05-10T07:49:23.192Z,37.95
2023-05-10T07:50:23.203Z,37.92
2023-05-10T07:51:23.097Z,37.78
2023-05-10T07:52:23.097Z,37.73
2023-05-10T07:53:23.067Z,37.82
2023-05-10T07:54:23.057Z,37.71
2023-05-10T07:55:23.207Z,37.82
2023-05-10T07:56:23.041Z,37.56
2023-05-10T07:57:23.016Z,37.47
2023-05-10T07:58:23.028Z,37.27
2023-05-10T07:59:23.011Z,37.11
2023-05-10T08:00:23.197Z,37.01
2023-05-10T08:01:23.012Z,36.96
2023-05-10T08:02:23.066Z,36.71
2023-05-10T08:03:23.012Z,36.67
2023-05-10T08:04:23.017Z,36.63
2023-05-10T08:05:23.005Z,36.65
2023-05-10T08:06:22.969Z,36.73
2023-05-10T08:07:22.956Z,36.62
2023-05-10T08:08:22.998Z,36.63
2023-05-10T08:09:22.981Z,36.56
2023-05-10T08:10:22.957Z,36.54
2023-05-10T08:11:22.938Z,36.58
2023-05-10T08:12:22.941Z,36.52
2023-05-10T08:13:22.951Z,36.54
2023-05-10T08:14:22.930Z,36.52
2023-05-10T08:15:23.235Z,36.53
2023-05-10T08:16:23.013Z,36.55
2023-05-10T08:17:24.825Z,36.51
2023-05-10T08:18:23.055Z,36.54
2023-05-10T08:19:22.947Z,36.53
2023-05-10T08:20:23.227Z,36.53
2023-05-10T08:21:22.996Z,36.57
2023-05-10T08:22:22.979Z,36.55
2023-05-10T08:23:22.991Z,36.59
2023-05-10T08:24:23.035Z,36.70
2023-05-10T08:25:23.014Z,36.68
2023-05-10T08:26:23.054Z,36.79
2023-05-10T08:27:23.056Z,36.75
2023-05-10T08:28:23.087Z,36.80
2023-05-10T08:29:23.112Z,36.75
2023-05-10T08:30:23.134Z,36.77
2023-05-10T08:31:23.150Z,36.76
2023-05-10T08:32:23.150Z,36.76
2023-05-10T08:33:23.186Z,36.75
2023-05-10T08:34:23.417Z,36.79
2023-05-10T08:35:23.213Z,36.80
2023-05-10T08:36:23.253Z,36.79
2023-05-10T08:37:23.262Z,36.85
2023-05-10T08:38:23.315Z,37.09
2023-05-10T08:39:29.780Z,37.06
2023-05-10T08:40:24.315Z,37.09
2023-05-10T08:41:23.366Z,37.06
2023-05-10T08:42:23.264Z,37.21
2023-05-10T08:43:23.280Z,37.23
2023-05-10T08:44:23.279Z,37.20
2023-05-10T08:45:23.759Z,37.29
2023-05-10T08:46:24.229Z,37.31
2023-05-10T08:47:23.296Z,37.36
2023-05-10T08:48:23.253Z,37.36
2023-05-10T08:49:23.255Z,37.34
2023-05-10T08:50:23.240Z,37.32
2023-05-10T08:51:23.230Z,37.30
2023-05-10T08:52:23.224Z,37.49
2023-05-10T08:53:23.228Z,37.43
2023-05-10T08:54:23.237Z,37.49
2023-05-10T08:55:23.232Z,37.47
2023-05-10T08:56:23.218Z,37.54
2023-05-10T08:57:23.185Z,37.45
2023-05-10T08:58:23.220Z,37.41
2023-05-10T08:59:23.186Z,37.45
2023-05-10T09:00:23.181Z,37.37
2023-05-10T09:01:23.319Z,37.47
2023-05-10T09:02:23.174Z,37.47
2023-05-10T09:03:23.239Z,37.53
2023-05-10T09:04:23.198Z,37.58
2023-05-10T09:05:23.184Z,37.42
2023-05-10T09:06:23.140Z,37.39
2023-05-10T09:07:23.137Z,37.46
2023-05-10T09:08:23.128Z,37.50
2023-05-10T09:09:23.110Z,37.60
2023-05-10T09:10:23.228Z,37.47
2023-05-10T09:11:23.103Z,37.47
2023-05-10T09:12:23.118Z,37.74
2023-05-10T09:13:23.103Z,37.61
2023-05-10T09:14:23.082Z,37.53
2023-05-10T09:15:23.248Z,37.55
2023-05-10T09:16:23.176Z,37.57
2023-05-10T09:17:23.147Z,37.62
2023-05-10T09:18:23.101Z,37.46
2023-05-10T09:19:23.083Z,37.52
2023-05-10T09:20:23.240Z,37.58
2023-05-10T09:21:23.143Z,37.61
2023-05-10T09:22:23.201Z,37.56
2023-05-10T09:23:23.221Z,37.50
2023-05-10T09:24:23.254Z,37.47
2023-05-10T09:25:23.754Z,37.55
2023-05-10T09:26:23.352Z,37.81
2023-05-10T09:27:23.323Z,37.69
2023-05-10T09:28:23.332Z,37.35
2023-05-10T09:29:23.286Z,37.11
2023-05-10T09:30:23.740Z,36.98
2023-05-10T09:31:23.567Z,37.00
2023-05-10T09:32:23.344Z,37.12
2023-05-10T09:33:23.296Z,37.10
2023-05-10T09:34:23.301Z,36.94
2023-05-10T09:35:23.293Z,37.33
2023-05-10T09:36:23.735Z,37.06
2023-05-10T09:37:23.316Z,37.27
2023-05-10T09:38:23.316Z,37.30
2023-05-10T09:39:23.316Z,36.91
2023-05-10T09:40:23.339Z,36.80
2023-05-10T09:41:23.337Z,36.68
2023-05-10T09:42:23.315Z,36.63
2023-05-10T09:43:23.344Z,36.57
2023-05-10T09:44:23.347Z,36.76
2023-05-10T09:45:23.758Z,36.65
2023-05-10T09:46:23.396Z,36.65
2023-05-10T09:47:23.436Z,36.75
2023-05-10T09:48:23.373Z,37.17
2023-05-10T09:49:23.357Z,37.14
2023-05-10T09:50:23.759Z,37.23
2023-05-10T09:51:23.362Z,37.28
2023-05-10T09:52:23.365Z,37.12
2023-05-10T09:53:23.357Z,36.67
2023-05-10T09:54:23.358Z,37.38
2023-05-10T09:55:23.391Z,37.28
2023-05-10T09:56:23.367Z,37.16
2023-05-10T09:57:23.343Z,37.00
2023-05-10T09:58:23.367Z,37.39
2023-05-10T09:59:23.348Z,36.56
2023-05-10T10:00:23.357Z,37.20
2023-05-10T10:01:23.412Z,36.91
2023-05-10T10:02:23.380Z,37.16
2023-05-10T10:03:23.376Z,37.28
2023-05-10T10:04:23.354Z,37.24
2023-05-10T10:05:23.333Z,37.32
2023-05-10T10:06:30.027Z,37.29
2023-05-10T10:07:24.349Z,37.15
2023-05-10T10:08:23.331Z,36.97
2023-05-10T10:09:23.312Z,36.31
2023-05-10T10:10:23.311Z,36.32
2023-05-10T10:11:23.310Z,36.50
2023-05-10T10:12:23.296Z,36.77
2023-05-10T10:13:23.293Z,37.08
2023-05-10T10:14:23.287Z,37.32
2023-05-10T10:15:23.514Z,37.63
2023-05-10T10:16:23.857Z,37.64
2023-05-10T10:17:23.314Z,38.02
2023-05-10T10:18:23.251Z,38.23
2023-05-10T10:19:23.244Z,38.35
2023-05-10T10:20:23.244Z,38.78
2023-05-10T10:21:23.281Z,39.13
2023-05-10T10:22:23.232Z,38.89
2023-05-10T10:23:23.273Z,38.99
2023-05-10T10:24:23.294Z,38.72
2023-05-10T10:25:23.388Z,37.44
2023-05-10T10:26:23.773Z,37.90
2023-05-10T10:27:23.490Z,37.31
2023-05-10T10:28:24.018Z,37.50
2023-05-10T10:29:23.558Z,37.62
2023-05-10T10:30:23.531Z,37.24
2023-05-10T10:31:23.617Z,37.35
2023-05-10T10:32:23.548Z,37.26
2023-05-10T10:33:28.479Z,37.32
2023-05-10T10:34:24.511Z,37.31
2023-05-10T10:35:23.521Z,37.35
2023-05-10T10:36:23.797Z,37.14
2023-05-10T10:37:23.503Z,37.09
2023-05-10T10:38:23.494Z,37.02
2023-05-10T10:39:23.489Z,37.04
2023-05-10T10:40:23.479Z,37.02
2023-05-10T10:41:23.474Z,37.05
2023-05-10T10:42:23.464Z,37.02
2023-05-10T10:43:23.447Z,37.00
2023-05-10T10:44:23.506Z,36.97
2023-05-10T10:45:23.435Z,37.01
2023-05-10T10:46:23.474Z,36.95
2023-05-10T10:47:23.466Z,37.05
2023-05-10T10:48:23.412Z,37.16
2023-05-10T10:49:23.443Z,37.26
2023-05-10T10:50:23.410Z,37.26
2023-05-10T10:51:23.424Z,37.31
2023-05-10T10:52:23.399Z,37.41
2023-05-10T10:53:23.447Z,37.37
2023-05-10T10:54:23.390Z,37.44
2023-05-10T10:55:23.396Z,37.33
2023-05-10T10:56:23.428Z,37.28
2023-05-10T10:57:23.427Z,37.37
2023-05-10T10:58:23.441Z,37.34
2023-05-10T10:59:23.431Z,37.46
2023-05-10T11:00:23.446Z,37.44
2023-05-10T11:01:23.517Z,37.41
2023-05-10T11:02:23.525Z,37.42
2023-05-10T11:03:23.486Z,37.46
2023-05-10T11:04:23.549Z,37.59
2023-05-10T11:05:23.505Z,37.52
2023-05-10T11:06:23.788Z,37.66
2023-05-10T11:07:23.524Z,37.69
2023-05-10T11:08:23.543Z,37.62
2023-05-10T11:09:23.555Z,37.56
2023-05-10T11:10:23.575Z,37.57
2023-05-10T11:11:23.596Z,37.60
2023-05-10T11:12:23.661Z,37.96
2023-05-10T11:13:23.633Z,38.46
2023-05-10T11:14:23.693Z,38.39
2023-05-10T11:15:23.695Z,38.48
2023-05-10T11:16:23.734Z,38.37
2023-05-10T11:17:23.857Z,38.25
2023-05-10T11:18:23.776Z,38.28
2023-05-10T11:19:23.798Z,38.27
2023-05-10T11:20:23.825Z,38.44
2023-05-10T11:21:23.855Z,38.38
2023-05-10T11:22:23.891Z,38.47
2023-05-10T11:23:23.909Z,38.90
2023-05-10T11:24:23.915Z,38.89
2023-05-10T11:25:23.935Z,38.94
2023-05-10T11:26:23.963Z,38.89
2023-05-10T11:27:23.948Z,38.79
2023-05-10T11:28:23.976Z,38.34
2023-05-10T11:29:23.980Z,38.11
2023-05-10T11:30:23.972Z,37.87
2023-05-10T11:31:24.054Z,37.70
2023-05-10T11:32:24.117Z,37.33
2023-05-10T11:33:24.082Z,37.30
2023-05-10T11:34:24.066Z,37.61
2023-05-10T11:35:24.118Z,37.64
2023-05-10T11:36:24.203Z,38.06
2023-05-10T11:37:24.233Z,38.06
2023-05-10T11:38:24.288Z,38.49
2023-05-10T11:39:24.330Z,38.78
2023-05-10T11:40:24.393Z,38.86
2023-05-10T11:41:24.460Z,38.97
2023-05-10T11:42:24.488Z,38.92
2023-05-10T11:43:24.556Z,38.85
2023-05-10T11:44:24.586Z,38.85
2023-05-10T11:45:24.645Z,38.74
2023-05-10T11:46:24.676Z,38.72
2023-05-10T11:47:24.679Z,38.58
2023-05-10T11:48:24.729Z,38.46
2023-05-10T11:49:24.720Z,38.26
2023-05-10T11:50:24.768Z,38.17
2023-05-10T11:51:24.780Z,38.05
2023-05-10T11:52:24.785Z,38.01
2023-05-10T11:53:25.935Z,37.99
2023-05-10T11:54:24.831Z,38.00
2023-05-10T11:55:24.829Z,38.05
2023-05-10T11:56:24.885Z,37.96
2023-05-10T11:57:24.848Z,37.84
2023-05-10T11:58:24.857Z,37.73
2023-05-10T11:59:24.850Z,37.64
2023-05-10T12:00:24.852Z,37.52
2023-05-10T12:01:24.844Z,37.45
2023-05-10T12:02:24.921Z,37.35
2023-05-10T12:03:24.942Z,37.23
2023-05-10T12:04:24.892Z,37.04
2023-05-10T12:05:24.865Z,37.00
2023-05-10T12:06:25.313Z,36.94
2023-05-10T12:07:24.896Z,36.84
2023-05-10T12:08:24.919Z,36.78
2023-05-10T12:09:39.448Z,36.70
2023-05-10T12:10:25.930Z,36.66
2023-05-10T12:11:25.311Z,36.50
2023-05-10T12:12:24.910Z,36.65
2023-05-10T12:13:24.912Z,36.53
2023-05-10T12:14:24.954Z,36.54
2023-05-10T12:15:24.880Z,36.51
2023-05-10T12:16:25.361Z,36.53
2023-05-10T12:17:24.882Z,36.48
2023-05-10T12:18:24.910Z,36.46
2023-05-10T12:19:24.931Z,36.43
2023-05-10T12:20:24.972Z,36.44
2023-05-10T12:21:25.037Z,36.41
2023-05-10T12:22:25.108Z,36.43
2023-05-10T12:23:25.144Z,36.38
2023-05-10T12:24:25.206Z,36.38
2023-05-10T12:25:25.273Z,36.36
2023-05-10T12:26:25.336Z,36.40
2023-05-10T12:27:25.405Z,36.36
2023-05-10T12:28:25.465Z,36.34
2023-05-10T12:29:25.531Z,36.32
2023-05-10T12:30:25.600Z,36.36
2023-05-10T12:31:25.778Z,36.33
2023-05-10T12:32:25.759Z,36.38
2023-05-10T12:33:25.793Z,36.31
2023-05-10T12:34:25.828Z,36.36
2023-05-10T12:35:25.892Z,36.35
2023-05-10T12:36:25.963Z,36.39
2023-05-10T12:37:26.017Z,36.28
2023-05-10T12:38:26.108Z,36.30
2023-05-10T12:39:26.143Z,36.29
2023-05-10T12:40:26.194Z,36.27
2023-05-10T12:41:26.311Z,36.24
2023-05-10T12:42:26.334Z,36.25
2023-05-10T12:43:26.405Z,36.23
2023-05-10T12:44:26.459Z,36.28
2023-05-10T12:45:26.516Z,36.22
2023-05-10T12:46:26.683Z,36.24
2023-05-10T12:47:26.718Z,36.23
2023-05-10T12:48:26.693Z,36.27
2023-05-10T12:49:26.731Z,36.22
2023-05-10T12:50:26.816Z,36.26
2023-05-10T12:51:26.865Z,36.24
2023-05-10T12:52:26.925Z,36.26
2023-05-10T12:53:27.017Z,36.26